NOJ47 PAJN-CYEG
Flight info
| Callsign | NOJ47 |
|---|---|
| Flight time | 1h 48m |
| Altitude | 45000 |
| Route | JNU7 SSR Q902 HOODS DCT DUXAR DCT YQU DCT TETAG TETAG2 |
| Aircraft | C700/M-SBDGHM1RWXY/LB2 |
Departure
| Time | 2026-05-06 00:25 |
|---|---|
| Airport | Juneau International Airport (PAJN) |
Arrival
| Time | 2026-05-06 02:13 |
|---|---|
| Airport | Edmonton International Airport (CYEG) |
| Time | Latitude | Longitude | Altitude | Speed | Heading |
|---|---|---|---|---|---|
| 2026-05-06 00:10 | 58.35741 | -134.56878 | 28 ft | 0 kts | 2° |
| 2026-05-06 00:18 | 58.35731 | -134.56884 | 28 ft | 2 kts | 57° |
| 2026-05-06 00:19 | 58.35728 | -134.56898 | 28 ft | 0 kts | 94° |
| 2026-05-06 00:21 | 58.35726 | -134.56889 | 28 ft | 4 kts | 108° |
| 2026-05-06 00:21 | 58.35688 | -134.56797 | 28 ft | 14 kts | 135° |
| 2026-05-06 00:22 | 58.35580 | -134.56772 | 28 ft | 18 kts | 195° |
| 2026-05-06 00:22 | 58.35485 | -134.56742 | 28 ft | 17 kts | 106° |
| 2026-05-06 00:22 | 58.35453 | -134.56507 | 28 ft | 20 kts | 105° |
| 2026-05-06 00:22 | 58.35414 | -134.56237 | 28 ft | 22 kts | 104° |
| 2026-05-06 00:23 | 58.35372 | -134.55935 | 28 ft | 25 kts | 105° |
| 2026-05-06 00:23 | 58.35325 | -134.55598 | 27 ft | 27 kts | 105° |
| 2026-05-06 00:23 | 58.35269 | -134.55305 | 27 ft | 17 kts | 152° |
| 2026-05-06 00:23 | 58.35180 | -134.55360 | 26 ft | 13 kts | 274° |
| 2026-05-06 00:24 | 58.35183 | -134.55382 | 29 ft | 0 kts | 285° |
| 2026-05-06 00:24 | 58.35198 | -134.55490 | 26 ft | 39 kts | 285° |
| 2026-05-06 00:24 | 58.35348 | -134.56549 | 46 ft | 122 kts | 281° |
| 2026-05-06 00:25 | 58.35593 | -134.58406 | 609 ft | 159 kts | 276° |
| 2026-05-06 00:25 | 58.35624 | -134.60656 | 1670 ft | 181 kts | 267° |
| 2026-05-06 00:25 | 58.35680 | -134.63150 | 2894 ft | 196 kts | 271° |
| 2026-05-06 00:25 | 58.35792 | -134.65884 | 3853 ft | 220 kts | 272° |
| 2026-05-06 00:26 | 58.35897 | -134.68972 | 5213 ft | 244 kts | 271° |
| 2026-05-06 00:26 | 58.35952 | -134.72255 | 6672 ft | 251 kts | 268° |
| 2026-05-06 00:26 | 58.35965 | -134.75606 | 8222 ft | 255 kts | 268° |
| 2026-05-06 00:26 | 58.35941 | -134.79023 | 9825 ft | 260 kts | 259° |
| 2026-05-06 00:27 | 58.35159 | -134.82142 | 11084 ft | 276 kts | 228° |
| 2026-05-06 00:27 | 58.33452 | -134.84137 | 12151 ft | 308 kts | 199° |
| 2026-05-06 00:27 | 58.31211 | -134.84331 | 13296 ft | 337 kts | 176° |
| 2026-05-06 00:27 | 58.28895 | -134.83429 | 14874 ft | 344 kts | 172° |
| 2026-05-06 00:28 | 58.26542 | -134.82418 | 16316 ft | 349 kts | 174° |
| 2026-05-06 00:28 | 58.24128 | -134.81682 | 17729 ft | 353 kts | 178° |
| 2026-05-06 00:28 | 58.21669 | -134.81155 | 18967 ft | 359 kts | 179° |
| 2026-05-06 00:28 | 58.19166 | -134.80507 | 20006 ft | 365 kts | 177° |
| 2026-05-06 00:29 | 58.16613 | -134.79717 | 20801 ft | 376 kts | 176° |
| 2026-05-06 00:29 | 58.14023 | -134.78996 | 21860 ft | 378 kts | 178° |
| 2026-05-06 00:29 | 58.11395 | -134.78305 | 22797 ft | 383 kts | 178° |
| 2026-05-06 00:29 | 58.08740 | -134.77561 | 23710 ft | 389 kts | 177° |
| 2026-05-06 00:30 | 58.06043 | -134.76806 | 24508 ft | 393 kts | 178° |
| 2026-05-06 00:30 | 58.03360 | -134.76073 | 25328 ft | 395 kts | 178° |
| 2026-05-06 00:30 | 58.00616 | -134.75327 | 26119 ft | 399 kts | 178° |
| 2026-05-06 00:30 | 57.97860 | -134.74571 | 26956 ft | 402 kts | 178° |
| 2026-05-06 00:31 | 57.95081 | -134.73807 | 27748 ft | 405 kts | 178° |
| 2026-05-06 00:31 | 57.92282 | -134.73045 | 28499 ft | 408 kts | 178° |
| 2026-05-06 00:31 | 57.89451 | -134.72280 | 29227 ft | 413 kts | 178° |
| 2026-05-06 00:31 | 57.86608 | -134.71106 | 29959 ft | 423 kts | 171° |
| 2026-05-06 00:32 | 57.83831 | -134.69288 | 30453 ft | 435 kts | 165° |
| 2026-05-06 00:32 | 57.81072 | -134.66714 | 30985 ft | 448 kts | 158° |
| 2026-05-06 00:32 | 57.78462 | -134.63462 | 31816 ft | 453 kts | 151° |
| 2026-05-06 00:32 | 57.76069 | -134.59583 | 32662 ft | 458 kts | 144° |
| 2026-05-06 00:33 | 57.73932 | -134.55093 | 33382 ft | 467 kts | 136° |
| 2026-05-06 00:33 | 57.72093 | -134.50024 | 34103 ft | 474 kts | 129° |
| 2026-05-06 00:33 | 57.70606 | -134.44447 | 34716 ft | 483 kts | 121° |
| 2026-05-06 00:33 | 57.69504 | -134.38455 | 35270 ft | 490 kts | 114° |
| 2026-05-06 00:34 | 57.68524 | -134.32351 | 35795 ft | 490 kts | 114° |
| 2026-05-06 00:34 | 57.67532 | -134.26274 | 36399 ft | 488 kts | 114° |
| 2026-05-06 00:34 | 57.66532 | -134.20227 | 36870 ft | 488 kts | 114° |
| 2026-05-06 00:34 | 57.65531 | -134.14149 | 37348 ft | 489 kts | 113° |
| 2026-05-06 00:35 | 57.64542 | -134.08083 | 37838 ft | 488 kts | 113° |
| 2026-05-06 00:35 | 57.63537 | -134.02040 | 38368 ft | 487 kts | 113° |
| 2026-05-06 00:35 | 57.62527 | -133.96006 | 38818 ft | 486 kts | 113° |
| 2026-05-06 00:35 | 57.61529 | -133.90005 | 39206 ft | 484 kts | 112° |
| 2026-05-06 00:36 | 57.60531 | -133.84001 | 39610 ft | 482 kts | 113° |
| 2026-05-06 00:36 | 57.59528 | -133.78032 | 39938 ft | 481 kts | 113° |
| 2026-05-06 00:36 | 57.58536 | -133.72167 | 40260 ft | 481 kts | 113° |
| 2026-05-06 00:36 | 57.57532 | -133.66224 | 40572 ft | 480 kts | 112° |
| 2026-05-06 00:37 | 57.56529 | -133.60291 | 40843 ft | 480 kts | 113° |
| 2026-05-06 00:37 | 57.55523 | -133.54372 | 41111 ft | 479 kts | 113° |
| 2026-05-06 00:37 | 57.54513 | -133.48463 | 41404 ft | 479 kts | 112° |
| 2026-05-06 00:37 | 57.53501 | -133.42554 | 41696 ft | 479 kts | 112° |
| 2026-05-06 00:38 | 57.52489 | -133.36656 | 42003 ft | 478 kts | 112° |
| 2026-05-06 00:38 | 57.51473 | -133.30760 | 42297 ft | 477 kts | 112° |
| 2026-05-06 00:38 | 57.50455 | -133.24862 | 42543 ft | 478 kts | 112° |
| 2026-05-06 00:38 | 57.49435 | -133.18987 | 42785 ft | 477 kts | 113° |
| 2026-05-06 00:39 | 57.48422 | -133.13180 | 43026 ft | 477 kts | 112° |
| 2026-05-06 00:39 | 57.47400 | -133.07315 | 43289 ft | 476 kts | 112° |
| 2026-05-06 00:39 | 57.46374 | -133.01444 | 43519 ft | 476 kts | 112° |
| 2026-05-06 00:39 | 57.45346 | -132.95599 | 43708 ft | 476 kts | 112° |
| 2026-05-06 00:40 | 57.44312 | -132.89743 | 43874 ft | 477 kts | 112° |
| 2026-05-06 00:40 | 57.43278 | -132.83891 | 44089 ft | 477 kts | 112° |
| 2026-05-06 00:40 | 57.42244 | -132.78051 | 44292 ft | 476 kts | 112° |
| 2026-05-06 00:40 | 57.41203 | -132.72202 | 44456 ft | 476 kts | 112° |
| 2026-05-06 00:41 | 57.40163 | -132.66383 | 44608 ft | 476 kts | 112° |
| 2026-05-06 00:41 | 57.39129 | -132.60615 | 44779 ft | 476 kts | 113° |
| 2026-05-06 00:41 | 57.38085 | -132.54807 | 44913 ft | 476 kts | 113° |
| 2026-05-06 00:41 | 57.37039 | -132.48985 | 45039 ft | 476 kts | 113° |
| 2026-05-06 00:42 | 57.35985 | -132.43154 | 45041 ft | 478 kts | 113° |
| 2026-05-06 00:42 | 57.33851 | -132.31411 | 45025 ft | 483 kts | 113° |
| 2026-05-06 00:43 | 57.31687 | -132.19559 | 45006 ft | 488 kts | 113° |
| 2026-05-06 00:43 | 57.29489 | -132.07622 | 45000 ft | 492 kts | 113° |
| 2026-05-06 00:44 | 57.27266 | -131.95610 | 44987 ft | 495 kts | 114° |
| 2026-05-06 00:44 | 57.25026 | -131.83592 | 44965 ft | 500 kts | 113° |
| 2026-05-06 00:45 | 57.22749 | -131.71410 | 44966 ft | 502 kts | 113° |
| 2026-05-06 00:45 | 57.20458 | -131.59289 | 44954 ft | 498 kts | 113° |
| 2026-05-06 00:46 | 57.18178 | -131.47257 | 44967 ft | 494 kts | 113° |
| 2026-05-06 00:46 | 57.15895 | -131.35336 | 44960 ft | 495 kts | 114° |
| 2026-05-06 00:47 | 57.13588 | -131.23321 | 44968 ft | 501 kts | 114° |
| 2026-05-06 00:47 | 57.11244 | -131.11197 | 44958 ft | 503 kts | 114° |
| 2026-05-06 00:48 | 57.08897 | -130.99147 | 44944 ft | 503 kts | 114° |
| 2026-05-06 00:48 | 57.06529 | -130.87044 | 44926 ft | 501 kts | 115° |
| 2026-05-06 00:49 | 57.04155 | -130.75035 | 44925 ft | 499 kts | 115° |
| 2026-05-06 00:49 | 57.02199 | -130.65092 | 44931 ft | 497 kts | 115° |
| 2026-05-06 00:50 | 56.99819 | -130.53195 | 44903 ft | 496 kts | 115° |
| 2026-05-06 00:50 | 56.97432 | -130.41275 | 44927 ft | 501 kts | 115° |
| 2026-05-06 00:51 | 56.95002 | -130.29239 | 44917 ft | 504 kts | 115° |
| 2026-05-06 00:51 | 56.92566 | -130.17217 | 44919 ft | 503 kts | 115° |
| 2026-05-06 00:52 | 56.90115 | -130.05219 | 44924 ft | 503 kts | 115° |
| 2026-05-06 00:52 | 56.87648 | -129.93208 | 44908 ft | 504 kts | 115° |
| 2026-05-06 00:53 | 56.85165 | -129.81191 | 44905 ft | 506 kts | 115° |
| 2026-05-06 00:53 | 56.82686 | -129.69244 | 44906 ft | 507 kts | 115° |
| 2026-05-06 00:54 | 56.80166 | -129.57202 | 44899 ft | 508 kts | 115° |
| 2026-05-06 00:54 | 56.77650 | -129.45183 | 44893 ft | 507 kts | 114° |
| 2026-05-06 00:55 | 56.76046 | -129.32571 | 44878 ft | 510 kts | 104° |
| 2026-05-06 00:55 | 56.74677 | -129.19920 | 44880 ft | 509 kts | 105° |
| 2026-05-06 00:56 | 56.73302 | -129.07297 | 44875 ft | 507 kts | 105° |
| 2026-05-06 00:56 | 56.71918 | -128.94713 | 44863 ft | 507 kts | 105° |
| 2026-05-06 00:57 | 56.70517 | -128.82138 | 44868 ft | 511 kts | 105° |
| 2026-05-06 00:57 | 56.69094 | -128.69433 | 44865 ft | 513 kts | 105° |
| 2026-05-06 00:58 | 56.67651 | -128.56715 | 44863 ft | 513 kts | 105° |
| 2026-05-06 00:58 | 56.66193 | -128.43974 | 44869 ft | 514 kts | 105° |
| 2026-05-06 00:59 | 56.64728 | -128.31297 | 44867 ft | 511 kts | 105° |
| 2026-05-06 00:59 | 56.63253 | -128.18652 | 44869 ft | 510 kts | 105° |
| 2026-05-06 01:00 | 56.61771 | -128.06070 | 44862 ft | 509 kts | 105° |
| 2026-05-06 01:00 | 56.60285 | -127.93565 | 44865 ft | 511 kts | 105° |
| 2026-05-06 01:01 | 56.58770 | -127.80941 | 44878 ft | 513 kts | 105° |
| 2026-05-06 01:01 | 56.57234 | -127.68263 | 44882 ft | 516 kts | 105° |
| 2026-05-06 01:02 | 56.55681 | -127.55552 | 44883 ft | 516 kts | 105° |
| 2026-05-06 01:02 | 56.54114 | -127.42853 | 44880 ft | 515 kts | 105° |
| 2026-05-06 01:03 | 56.52542 | -127.30209 | 44888 ft | 513 kts | 105° |
| 2026-05-06 01:03 | 56.50970 | -127.17692 | 44877 ft | 511 kts | 105° |
| 2026-05-06 01:04 | 56.49373 | -127.05091 | 44881 ft | 509 kts | 105° |
| 2026-05-06 01:04 | 56.47789 | -126.92697 | 44878 ft | 507 kts | 105° |
| 2026-05-06 01:05 | 56.46185 | -126.80251 | 44882 ft | 509 kts | 105° |
| 2026-05-06 01:05 | 56.44560 | -126.67759 | 44889 ft | 511 kts | 105° |
| 2026-05-06 01:06 | 56.42918 | -126.55226 | 44891 ft | 512 kts | 105° |
| 2026-05-06 01:06 | 56.41262 | -126.42709 | 44894 ft | 512 kts | 105° |
| 2026-05-06 01:07 | 56.39595 | -126.30207 | 44896 ft | 512 kts | 105° |
| 2026-05-06 01:07 | 56.37914 | -126.17712 | 44893 ft | 512 kts | 105° |
| 2026-05-06 01:08 | 56.36222 | -126.05230 | 44894 ft | 512 kts | 105° |
| 2026-05-06 01:08 | 56.34528 | -125.92846 | 44899 ft | 512 kts | 105° |
| 2026-05-06 01:09 | 56.32811 | -125.80394 | 44903 ft | 512 kts | 106° |
| 2026-05-06 01:09 | 56.31084 | -125.67959 | 44899 ft | 511 kts | 106° |
| 2026-05-06 01:10 | 56.29343 | -125.55543 | 44899 ft | 511 kts | 106° |
| 2026-05-06 01:10 | 56.27591 | -125.43136 | 44900 ft | 511 kts | 106° |
| 2026-05-06 01:11 | 56.25823 | -125.30724 | 44892 ft | 511 kts | 105° |
| 2026-05-06 01:11 | 56.24048 | -125.18338 | 44895 ft | 512 kts | 106° |
| 2026-05-06 01:12 | 56.22262 | -125.06004 | 44888 ft | 512 kts | 105° |
| 2026-05-06 01:12 | 56.20455 | -124.93605 | 44881 ft | 512 kts | 106° |
| 2026-05-06 01:13 | 56.18638 | -124.81235 | 44877 ft | 511 kts | 106° |
| 2026-05-06 01:13 | 56.16824 | -124.68982 | 44869 ft | 510 kts | 106° |
| 2026-05-06 01:14 | 56.14069 | -124.50536 | 44878 ft | 509 kts | 106° |
| 2026-05-06 01:14 | 56.12218 | -124.38297 | 44864 ft | 508 kts | 105° |
| 2026-05-06 01:15 | 56.10363 | -124.26061 | 44860 ft | 508 kts | 106° |
| 2026-05-06 01:15 | 56.08505 | -124.13957 | 44854 ft | 507 kts | 106° |
| 2026-05-06 01:16 | 56.06631 | -124.01791 | 44853 ft | 507 kts | 106° |
| 2026-05-06 01:16 | 56.04736 | -123.89607 | 44873 ft | 509 kts | 106° |
| 2026-05-06 01:17 | 56.02822 | -123.77380 | 44875 ft | 511 kts | 106° |
| 2026-05-06 01:17 | 56.00894 | -123.65149 | 44878 ft | 511 kts | 106° |
| 2026-05-06 01:18 | 55.98954 | -123.52941 | 44902 ft | 509 kts | 106° |
| 2026-05-06 01:18 | 55.97011 | -123.40790 | 44910 ft | 507 kts | 106° |
| 2026-05-06 01:19 | 55.95065 | -123.28716 | 44899 ft | 505 kts | 105° |
| 2026-05-06 01:19 | 55.93124 | -123.16754 | 44916 ft | 506 kts | 106° |
| 2026-05-06 01:20 | 55.91148 | -123.04663 | 44914 ft | 508 kts | 105° |
| 2026-05-06 01:20 | 55.89156 | -122.92548 | 44927 ft | 510 kts | 106° |
| 2026-05-06 01:21 | 55.87145 | -122.80421 | 44925 ft | 510 kts | 106° |
| 2026-05-06 01:21 | 55.85124 | -122.68308 | 44937 ft | 510 kts | 106° |
| 2026-05-06 01:22 | 55.83091 | -122.56204 | 44942 ft | 511 kts | 106° |
| 2026-05-06 01:22 | 55.81039 | -122.44088 | 44940 ft | 513 kts | 106° |
| 2026-05-06 01:23 | 55.78970 | -122.31916 | 44944 ft | 515 kts | 106° |
| 2026-05-06 01:23 | 55.76875 | -122.19724 | 44940 ft | 516 kts | 106° |
| 2026-05-06 01:24 | 55.74777 | -122.07561 | 44943 ft | 514 kts | 106° |
| 2026-05-06 01:24 | 55.72675 | -121.95479 | 44939 ft | 511 kts | 106° |
| 2026-05-06 01:25 | 55.70583 | -121.83519 | 44916 ft | 510 kts | 106° |
| 2026-05-06 01:25 | 55.68468 | -121.71528 | 44907 ft | 509 kts | 106° |
| 2026-05-06 01:26 | 55.66350 | -121.59565 | 44910 ft | 509 kts | 106° |
| 2026-05-06 01:26 | 55.64209 | -121.47586 | 44910 ft | 510 kts | 106° |
| 2026-05-06 01:27 | 55.62058 | -121.35606 | 44927 ft | 511 kts | 106° |
| 2026-05-06 01:27 | 55.59888 | -121.23618 | 44944 ft | 512 kts | 106° |
| 2026-05-06 01:28 | 55.57702 | -121.11602 | 44964 ft | 514 kts | 106° |
| 2026-05-06 01:28 | 55.55504 | -120.99608 | 44994 ft | 512 kts | 105° |
| 2026-05-06 01:29 | 55.53307 | -120.87692 | 44975 ft | 507 kts | 106° |
| 2026-05-06 01:29 | 55.51118 | -120.75895 | 44987 ft | 505 kts | 106° |
| 2026-05-06 01:30 | 55.48916 | -120.64103 | 44987 ft | 506 kts | 106° |
| 2026-05-06 01:30 | 55.46698 | -120.52297 | 44999 ft | 508 kts | 106° |
| 2026-05-06 01:31 | 55.44473 | -120.40528 | 45010 ft | 510 kts | 106° |
| 2026-05-06 01:31 | 55.42219 | -120.28685 | 45013 ft | 509 kts | 106° |
| 2026-05-06 01:32 | 55.40328 | -120.18802 | 45016 ft | 509 kts | 106° |
| 2026-05-06 01:32 | 55.38059 | -120.07012 | 45024 ft | 508 kts | 106° |
| 2026-05-06 01:33 | 55.35800 | -119.95341 | 45023 ft | 506 kts | 106° |
| 2026-05-06 01:33 | 55.33523 | -119.83652 | 45021 ft | 504 kts | 106° |
| 2026-05-06 01:34 | 55.31243 | -119.72019 | 45038 ft | 503 kts | 106° |
| 2026-05-06 01:34 | 55.28958 | -119.60427 | 45036 ft | 502 kts | 106° |
| 2026-05-06 01:35 | 55.26661 | -119.48840 | 45045 ft | 504 kts | 106° |
| 2026-05-06 01:35 | 55.24339 | -119.37204 | 45048 ft | 506 kts | 106° |
| 2026-05-06 01:36 | 55.22002 | -119.25557 | 45056 ft | 508 kts | 106° |
| 2026-05-06 01:36 | 55.19650 | -119.13905 | 45061 ft | 507 kts | 106° |
| 2026-05-06 01:37 | 55.17293 | -119.02296 | 45002 ft | 505 kts | 106° |
| 2026-05-06 01:37 | 55.14977 | -118.90712 | 45001 ft | 504 kts | 106° |
| 2026-05-06 01:38 | 55.12656 | -118.79162 | 45000 ft | 503 kts | 106° |
| 2026-05-06 01:38 | 55.10332 | -118.67699 | 45011 ft | 502 kts | 106° |
| 2026-05-06 01:39 | 55.07995 | -118.56200 | 45030 ft | 502 kts | 106° |
| 2026-05-06 01:39 | 55.05641 | -118.44719 | 45050 ft | 503 kts | 106° |
| 2026-05-06 01:40 | 55.03281 | -118.33249 | 45077 ft | 502 kts | 106° |
| 2026-05-06 01:40 | 55.00908 | -118.21802 | 45078 ft | 502 kts | 106° |
| 2026-05-06 01:41 | 54.98529 | -118.10373 | 45071 ft | 501 kts | 106° |
| 2026-05-06 01:41 | 54.96138 | -117.98967 | 45071 ft | 501 kts | 106° |
| 2026-05-06 01:42 | 54.93740 | -117.87581 | 45074 ft | 500 kts | 107° |
| 2026-05-06 01:42 | 54.91341 | -117.76257 | 45082 ft | 499 kts | 107° |
| 2026-05-06 01:43 | 54.88927 | -117.64926 | 45078 ft | 498 kts | 107° |
| 2026-05-06 01:43 | 54.86511 | -117.53649 | 45080 ft | 498 kts | 107° |
| 2026-05-06 01:44 | 54.84079 | -117.42355 | 45084 ft | 500 kts | 107° |
| 2026-05-06 01:44 | 54.81626 | -117.31034 | 45087 ft | 502 kts | 107° |
| 2026-05-06 01:45 | 54.79171 | -117.19761 | 45093 ft | 503 kts | 107° |
| 2026-05-06 01:45 | 54.76684 | -117.08407 | 45095 ft | 504 kts | 107° |
| 2026-05-06 01:46 | 54.74184 | -116.97053 | 45087 ft | 503 kts | 107° |
| 2026-05-06 01:46 | 54.71681 | -116.85746 | 45079 ft | 502 kts | 107° |
| 2026-05-06 01:47 | 54.69175 | -116.74488 | 45092 ft | 501 kts | 107° |
| 2026-05-06 01:47 | 54.66674 | -116.63315 | 45094 ft | 501 kts | 107° |
| 2026-05-06 01:48 | 54.64149 | -116.52094 | 45106 ft | 501 kts | 107° |
| 2026-05-06 01:48 | 54.61610 | -116.40868 | 45108 ft | 502 kts | 107° |
| 2026-05-06 01:49 | 54.59057 | -116.29643 | 45114 ft | 503 kts | 108° |
| 2026-05-06 01:49 | 54.56493 | -116.18428 | 45116 ft | 503 kts | 108° |
| 2026-05-06 01:50 | 54.53904 | -116.07160 | 44400 ft | 510 kts | 108° |
| 2026-05-06 01:50 | 54.52596 | -116.01501 | 43738 ft | 507 kts | 107° |
| 2026-05-06 01:50 | 54.51300 | -115.95909 | 43084 ft | 500 kts | 107° |
| 2026-05-06 01:51 | 54.50020 | -115.90394 | 42441 ft | 493 kts | 106° |
| 2026-05-06 01:51 | 54.48754 | -115.84947 | 41800 ft | 486 kts | 106° |
| 2026-05-06 01:51 | 54.47505 | -115.79584 | 41170 ft | 481 kts | 105° |
| 2026-05-06 01:51 | 54.46262 | -115.74263 | 40540 ft | 479 kts | 105° |
| 2026-05-06 01:52 | 54.45017 | -115.68948 | 39911 ft | 480 kts | 105° |
| 2026-05-06 01:52 | 54.43765 | -115.63607 | 39289 ft | 485 kts | 104° |
| 2026-05-06 01:52 | 54.42493 | -115.58198 | 38611 ft | 492 kts | 104° |
| 2026-05-06 01:52 | 54.41198 | -115.52715 | 37931 ft | 497 kts | 105° |
| 2026-05-06 01:53 | 54.39888 | -115.47192 | 37271 ft | 501 kts | 105° |
| 2026-05-06 01:53 | 54.38585 | -115.41706 | 36620 ft | 505 kts | 104° |
| 2026-05-06 01:53 | 54.37255 | -115.36111 | 35947 ft | 507 kts | 104° |
| 2026-05-06 01:53 | 54.35916 | -115.30498 | 35324 ft | 507 kts | 104° |
| 2026-05-06 01:54 | 54.34575 | -115.24895 | 34637 ft | 508 kts | 104° |
| 2026-05-06 01:54 | 54.33233 | -115.19299 | 33938 ft | 507 kts | 104° |
| 2026-05-06 01:54 | 54.31890 | -115.13718 | 33260 ft | 505 kts | 104° |
| 2026-05-06 01:54 | 54.30548 | -115.08146 | 32600 ft | 504 kts | 104° |
| 2026-05-06 01:55 | 54.29224 | -115.02660 | 31942 ft | 506 kts | 105° |
| 2026-05-06 01:55 | 54.27876 | -114.97087 | 31277 ft | 508 kts | 105° |
| 2026-05-06 01:55 | 54.26516 | -114.91490 | 30603 ft | 510 kts | 105° |
| 2026-05-06 01:55 | 54.25148 | -114.85878 | 29888 ft | 511 kts | 105° |
| 2026-05-06 01:56 | 54.23782 | -114.80300 | 29217 ft | 504 kts | 105° |
| 2026-05-06 01:56 | 54.22439 | -114.74826 | 28567 ft | 495 kts | 105° |
| 2026-05-06 01:56 | 54.21122 | -114.69449 | 27930 ft | 487 kts | 105° |
| 2026-05-06 01:56 | 54.19819 | -114.64141 | 27291 ft | 479 kts | 106° |
| 2026-05-06 01:57 | 54.18534 | -114.58926 | 26680 ft | 474 kts | 106° |
| 2026-05-06 01:57 | 54.17271 | -114.53816 | 26084 ft | 471 kts | 106° |
| 2026-05-06 01:57 | 54.16000 | -114.48684 | 25451 ft | 467 kts | 106° |
| 2026-05-06 01:57 | 54.14721 | -114.43531 | 24831 ft | 464 kts | 107° |
| 2026-05-06 01:58 | 54.13484 | -114.38558 | 24238 ft | 459 kts | 107° |
| 2026-05-06 01:58 | 54.12242 | -114.33583 | 23615 ft | 453 kts | 107° |
| 2026-05-06 01:58 | 54.11015 | -114.28677 | 22998 ft | 446 kts | 107° |
| 2026-05-06 01:58 | 54.09798 | -114.23858 | 22434 ft | 441 kts | 108° |
| 2026-05-06 01:59 | 54.08281 | -114.19294 | 21836 ft | 446 kts | 118° |
| 2026-05-06 01:59 | 54.06341 | -114.15160 | 21256 ft | 450 kts | 129° |
| 2026-05-06 01:59 | 54.04018 | -114.11570 | 20663 ft | 452 kts | 139° |
| 2026-05-06 01:59 | 54.01382 | -114.08651 | 20067 ft | 451 kts | 149° |
| 2026-05-06 02:00 | 53.98568 | -114.06346 | 19471 ft | 447 kts | 153° |
| 2026-05-06 02:00 | 53.95761 | -114.04112 | 18843 ft | 443 kts | 153° |
| 2026-05-06 02:00 | 53.93000 | -114.01894 | 18337 ft | 435 kts | 153° |
| 2026-05-06 02:00 | 53.90284 | -113.99712 | 17850 ft | 429 kts | 153° |
| 2026-05-06 02:01 | 53.87582 | -113.97553 | 17406 ft | 427 kts | 153° |
| 2026-05-06 02:01 | 53.84935 | -113.95444 | 16945 ft | 427 kts | 153° |
| 2026-05-06 02:01 | 53.82244 | -113.93294 | 16488 ft | 426 kts | 153° |
| 2026-05-06 02:01 | 53.79577 | -113.91150 | 16034 ft | 423 kts | 153° |
| 2026-05-06 02:02 | 53.76930 | -113.89027 | 15591 ft | 418 kts | 153° |
| 2026-05-06 02:02 | 53.74314 | -113.86939 | 15153 ft | 414 kts | 153° |
| 2026-05-06 02:02 | 53.71717 | -113.84871 | 14723 ft | 411 kts | 153° |
| 2026-05-06 02:02 | 53.69145 | -113.82820 | 14296 ft | 408 kts | 153° |
| 2026-05-06 02:03 | 53.66585 | -113.80782 | 13860 ft | 405 kts | 153° |
| 2026-05-06 02:03 | 53.64050 | -113.78768 | 13410 ft | 399 kts | 153° |
| 2026-05-06 02:03 | 53.61555 | -113.76790 | 12991 ft | 393 kts | 153° |
| 2026-05-06 02:03 | 53.59104 | -113.74840 | 12585 ft | 384 kts | 152° |
| 2026-05-06 02:04 | 53.56788 | -113.72817 | 12198 ft | 364 kts | 150° |
| 2026-05-06 02:04 | 53.54621 | -113.70939 | 11837 ft | 346 kts | 151° |
| 2026-05-06 02:04 | 53.52526 | -113.69141 | 11491 ft | 330 kts | 151° |
| 2026-05-06 02:04 | 53.50522 | -113.67409 | 11163 ft | 317 kts | 151° |
| 2026-05-06 02:05 | 53.48592 | -113.65735 | 10885 ft | 308 kts | 151° |
| 2026-05-06 02:05 | 53.46703 | -113.64102 | 10570 ft | 304 kts | 151° |
| 2026-05-06 02:05 | 53.44823 | -113.62478 | 10253 ft | 304 kts | 150° |
| 2026-05-06 02:05 | 53.43105 | -113.60435 | 9848 ft | 301 kts | 135° |
| 2026-05-06 02:06 | 53.41638 | -113.57962 | 9518 ft | 298 kts | 133° |
| 2026-05-06 02:06 | 53.40193 | -113.55538 | 9211 ft | 288 kts | 133° |
| 2026-05-06 02:06 | 53.38796 | -113.53200 | 8874 ft | 278 kts | 133° |
| 2026-05-06 02:06 | 53.37469 | -113.50982 | 8589 ft | 268 kts | 133° |
| 2026-05-06 02:07 | 53.36169 | -113.48812 | 8399 ft | 257 kts | 134° |
| 2026-05-06 02:07 | 53.34922 | -113.46732 | 8154 ft | 250 kts | 134° |
| 2026-05-06 02:07 | 53.33701 | -113.44699 | 7844 ft | 246 kts | 134° |
| 2026-05-06 02:07 | 53.32492 | -113.42686 | 7622 ft | 244 kts | 134° |
| 2026-05-06 02:08 | 53.31293 | -113.40701 | 7319 ft | 241 kts | 134° |
| 2026-05-06 02:08 | 53.30119 | -113.38760 | 7094 ft | 230 kts | 134° |
| 2026-05-06 02:08 | 53.29023 | -113.36948 | 7087 ft | 214 kts | 134° |
| 2026-05-06 02:08 | 53.27922 | -113.35219 | 6740 ft | 226 kts | 142° |
| 2026-05-06 02:09 | 53.26503 | -113.34125 | 6244 ft | 226 kts | 165° |
| 2026-05-06 02:09 | 53.25026 | -113.33963 | 5849 ft | 202 kts | 186° |
| 2026-05-06 02:09 | 53.23684 | -113.34568 | 5632 ft | 206 kts | 204° |
| 2026-05-06 02:09 | 53.22474 | -113.35969 | 5390 ft | 217 kts | 224° |
| 2026-05-06 02:10 | 53.21606 | -113.38052 | 5118 ft | 220 kts | 245° |
| 2026-05-06 02:10 | 53.21241 | -113.40407 | 4865 ft | 203 kts | 265° |
| 2026-05-06 02:10 | 53.21349 | -113.42649 | 4585 ft | 185 kts | 283° |
| 2026-05-06 02:10 | 53.21812 | -113.44557 | 4287 ft | 173 kts | 301° |
| 2026-05-06 02:11 | 53.22538 | -113.46093 | 4092 ft | 168 kts | 318° |
| 2026-05-06 02:11 | 53.23371 | -113.47436 | 4004 ft | 160 kts | 317° |
| 2026-05-06 02:11 | 53.24140 | -113.48740 | 3760 ft | 155 kts | 316° |
| 2026-05-06 02:11 | 53.24869 | -113.49954 | 3515 ft | 142 kts | 317° |
| 2026-05-06 02:12 | 53.25548 | -113.51087 | 3307 ft | 135 kts | 316° |
| 2026-05-06 02:12 | 53.26218 | -113.52200 | 3110 ft | 136 kts | 316° |
| 2026-05-06 02:12 | 53.26889 | -113.53321 | 2905 ft | 136 kts | 316° |
| 2026-05-06 02:12 | 53.27558 | -113.54435 | 2721 ft | 135 kts | 315° |
| 2026-05-06 02:13 | 53.28212 | -113.55528 | 2533 ft | 132 kts | 315° |
| 2026-05-06 02:13 | 53.28843 | -113.56602 | 2389 ft | 122 kts | 314° |
| 2026-05-06 02:13 | 53.29335 | -113.57410 | 2378 ft | 75 kts | 315° |
| 2026-05-06 02:13 | 53.29630 | -113.57904 | 2377 ft | 40 kts | 315° |
| 2026-05-06 02:14 | 53.29810 | -113.58167 | 2379 ft | 29 kts | 334° |
| 2026-05-06 02:14 | 53.29990 | -113.58202 | 2378 ft | 16 kts | 359° |
| 2026-05-06 02:14 | 53.30109 | -113.58217 | 2378 ft | 18 kts | 339° |
| 2026-05-06 02:14 | 53.30200 | -113.58381 | 2378 ft | 21 kts | 312° |
| 2026-05-06 02:15 | 53.30309 | -113.58559 | 2378 ft | 23 kts | 314° |
| 2026-05-06 02:15 | 53.30428 | -113.58762 | 2379 ft | 26 kts | 313° |
| 2026-05-06 02:15 | 53.30560 | -113.58980 | 2378 ft | 28 kts | 316° |
| 2026-05-06 02:15 | 53.30701 | -113.59218 | 2378 ft | 30 kts | 314° |
| 2026-05-06 02:16 | 53.30849 | -113.59257 | 2378 ft | 24 kts | 31° |
| 2026-05-06 02:16 | 53.30991 | -113.59084 | 2378 ft | 26 kts | 35° |
| 2026-05-06 02:16 | 53.31096 | -113.58968 | 2378 ft | 28 kts | 34° |
| 2026-05-06 02:16 | 53.31317 | -113.58708 | 2378 ft | 30 kts | 34° |
| 2026-05-06 02:17 | 53.31435 | -113.58574 | 2378 ft | 31 kts | 36° |
| 2026-05-06 02:17 | 53.31598 | -113.58382 | 2378 ft | 28 kts | 34° |
| 2026-05-06 02:17 | 53.31765 | -113.58185 | 2378 ft | 30 kts | 35° |
| 2026-05-06 02:17 | 53.31943 | -113.57978 | 2379 ft | 32 kts | 35° |
| 2026-05-06 02:18 | 53.32130 | -113.57759 | 2379 ft | 34 kts | 34° |
| 2026-05-06 02:18 | 53.32265 | -113.57595 | 2379 ft | 14 kts | 52° |
| 2026-05-06 02:18 | 53.32237 | -113.57443 | 2379 ft | 16 kts | 123° |
| 2026-05-06 02:18 | 53.32219 | -113.57262 | 2379 ft | 12 kts | 78° |
| 2026-05-06 02:19 | 53.32270 | -113.57257 | 2379 ft | 12 kts | 281° |
| 2026-05-06 02:19 | 53.32271 | -113.57294 | 2379 ft | 0 kts | 265° |